sensor_id;sensor_type;location;lat;lon;timestamp;temperature;humidity
42201;DHT22;27869;51.442;7.540;2023-05-14T00:00:06;10.30;99.90
42201;DHT22;27869;51.442;7.540;2023-05-14T00:02:33;10.30;99.90
42201;DHT22;27869;51.442;7.540;2023-05-14T00:05:00;10.30;99.90
42201;DHT22;27869;51.442;7.540;2023-05-14T00:07:27;10.30;99.90
42201;DHT22;27869;51.442;7.540;2023-05-14T00:09:55;10.20;99.90
42201;DHT22;27869;51.442;7.540;2023-05-14T00:12:22;10.20;99.90
42201;DHT22;27869;51.442;7.540;2023-05-14T00:14:49;10.20;99.90
42201;DHT22;27869;51.442;7.540;2023-05-14T00:17:17;10.20;99.90
42201;DHT22;27869;51.442;7.540;2023-05-14T00:19:44;10.10;99.90
42201;DHT22;27869;51.442;7.540;2023-05-14T00:22:11;10.10;99.90
42201;DHT22;27869;51.442;7.540;2023-05-14T00:24:38;10.00;99.90
42201;DHT22;27869;51.442;7.540;2023-05-14T00:27:05;10.00;99.90
42201;DHT22;27869;51.442;7.540;2023-05-14T00:29:32;10.00;99.90
42201;DHT22;27869;51.442;7.540;2023-05-14T00:31:59;10.00;99.90
42201;DHT22;27869;51.442;7.540;2023-05-14T00:34:27;10.00;99.90
42201;DHT22;27869;51.442;7.540;2023-05-14T00:36:54;9.90;99.90
42201;DHT22;27869;51.442;7.540;2023-05-14T00:39:20;9.90;99.90
42201;DHT22;27869;51.442;7.540;2023-05-14T00:41:47;9.90;99.90
42201;DHT22;27869;51.442;7.540;2023-05-14T00:44:14;9.90;99.90
42201;DHT22;27869;51.442;7.540;2023-05-14T00:46:41;9.90;99.90
42201;DHT22;27869;51.442;7.540;2023-05-14T00:49:08;9.90;99.90
42201;DHT22;27869;51.442;7.540;2023-05-14T00:51:37;9.80;99.90
42201;DHT22;27869;51.442;7.540;2023-05-14T00:54:04;9.80;99.90
42201;DHT22;27869;51.442;7.540;2023-05-14T00:56:32;9.80;99.90
42201;DHT22;27869;51.442;7.540;2023-05-14T00:58:59;9.80;99.90
42201;DHT22;27869;51.442;7.540;2023-05-14T01:01:26;9.80;99.90
42201;DHT22;27869;51.442;7.540;2023-05-14T01:03:53;9.80;99.90
42201;DHT22;27869;51.442;7.540;2023-05-14T01:06:28;9.80;99.90
42201;DHT22;27869;51.442;7.540;2023-05-14T01:09:04;9.80;99.90
42201;DHT22;27869;51.442;7.540;2023-05-14T01:11:43;9.80;99.90
42201;DHT22;27869;51.442;7.540;2023-05-14T01:14:21;9.80;99.90
42201;DHT22;27869;51.442;7.540;2023-05-14T01:16:57;9.70;99.90
42201;DHT22;27869;51.442;7.540;2023-05-14T01:19:34;9.70;99.90
42201;DHT22;27869;51.442;7.540;2023-05-14T01:22:04;9.70;99.90
42201;DHT22;27869;51.442;7.540;2023-05-14T01:24:31;9.70;99.90
42201;DHT22;27869;51.442;7.540;2023-05-14T01:27:05;9.60;99.90
42201;DHT22;27869;51.442;7.540;2023-05-14T01:29:36;9.60;99.90
42201;DHT22;27869;51.442;7.540;2023-05-14T01:32:06;9.60;99.90
42201;DHT22;27869;51.442;7.540;2023-05-14T01:34:34;9.60;99.90
42201;DHT22;27869;51.442;7.540;2023-05-14T01:37:03;9.60;99.90
42201;DHT22;27869;51.442;7.540;2023-05-14T01:39:31;9.50;99.90
42201;DHT22;27869;51.442;7.540;2023-05-14T01:41:59;9.50;99.90
42201;DHT22;27869;51.442;7.540;2023-05-14T01:44:27;9.50;99.90
42201;DHT22;27869;51.442;7.540;2023-05-14T01:46:53;9.40;99.90
42201;DHT22;27869;51.442;7.540;2023-05-14T01:49:20;9.40;99.90
42201;DHT22;27869;51.442;7.540;2023-05-14T01:51:47;9.40;99.90
42201;DHT22;27869;51.442;7.540;2023-05-14T01:54:15;9.40;99.90
42201;DHT22;27869;51.442;7.540;2023-05-14T01:56:42;9.30;99.90
42201;DHT22;27869;51.442;7.540;2023-05-14T01:59:09;9.30;99.90
42201;DHT22;27869;51.442;7.540;2023-05-14T02:01:36;9.30;99.90
42201;DHT22;27869;51.442;7.540;2023-05-14T02:04:03;9.30;99.90
42201;DHT22;27869;51.442;7.540;2023-05-14T02:06:30;9.20;99.90
42201;DHT22;27869;51.442;7.540;2023-05-14T02:08:57;9.20;99.90
42201;DHT22;27869;51.442;7.540;2023-05-14T02:11:25;9.20;99.90
42201;DHT22;27869;51.442;7.540;2023-05-14T02:13:52;9.20;99.90
42201;DHT22;27869;51.442;7.540;2023-05-14T02:16:19;9.10;99.90
42201;DHT22;27869;51.442;7.540;2023-05-14T02:18:46;9.10;99.90
42201;DHT22;27869;51.442;7.540;2023-05-14T02:21:13;9.10;99.90
42201;DHT22;27869;51.442;7.540;2023-05-14T02:23:39;9.10;99.90
42201;DHT22;27869;51.442;7.540;2023-05-14T02:26:08;9.10;99.90
42201;DHT22;27869;51.442;7.540;2023-05-14T02:28:36;9.00;99.90
42201;DHT22;27869;51.442;7.540;2023-05-14T02:31:03;9.00;99.90
42201;DHT22;27869;51.442;7.540;2023-05-14T02:33:30;9.00;99.90
42201;DHT22;27869;51.442;7.540;2023-05-14T02:35:57;8.90;99.90
42201;DHT22;27869;51.442;7.540;2023-05-14T02:38:25;8.90;99.90
42201;DHT22;27869;51.442;7.540;2023-05-14T02:40:52;8.90;99.90
42201;DHT22;27869;51.442;7.540;2023-05-14T02:43:19;8.80;99.90
42201;DHT22;27869;51.442;7.540;2023-05-14T02:45:47;8.80;99.90
42201;DHT22;27869;51.442;7.540;2023-05-14T02:48:14;8.80;99.90
42201;DHT22;27869;51.442;7.540;2023-05-14T02:50:41;8.80;99.90
42201;DHT22;27869;51.442;7.540;2023-05-14T02:53:08;8.70;99.90
42201;DHT22;27869;51.442;7.540;2023-05-14T02:55:35;8.70;99.90
42201;DHT22;27869;51.442;7.540;2023-05-14T02:58:02;8.70;99.90
42201;DHT22;27869;51.442;7.540;2023-05-14T03:00:29;8.70;99.90
42201;DHT22;27869;51.442;7.540;2023-05-14T03:02:57;8.60;99.90
42201;DHT22;27869;51.442;7.540;2023-05-14T03:05:24;8.60;99.90
42201;DHT22;27869;51.442;7.540;2023-05-14T03:07:51;8.60;99.90
42201;DHT22;27869;51.442;7.540;2023-05-14T03:10:18;8.60;99.90
42201;DHT22;27869;51.442;7.540;2023-05-14T03:12:45;8.50;99.90
42201;DHT22;27869;51.442;7.540;2023-05-14T03:15:12;8.60;99.90
42201;DHT22;27869;51.442;7.540;2023-05-14T03:17:39;8.50;99.90
42201;DHT22;27869;51.442;7.540;2023-05-14T03:20:08;8.50;99.90
42201;DHT22;27869;51.442;7.540;2023-05-14T03:22:35;8.50;99.90
42201;DHT22;27869;51.442;7.540;2023-05-14T03:25:03;8.50;99.90
42201;DHT22;27869;51.442;7.540;2023-05-14T03:27:29;8.50;99.90
42201;DHT22;27869;51.442;7.540;2023-05-14T03:29:57;8.50;99.90
42201;DHT22;27869;51.442;7.540;2023-05-14T03:32:26;8.50;99.90
42201;DHT22;27869;51.442;7.540;2023-05-14T03:34:53;8.50;99.90
42201;DHT22;27869;51.442;7.540;2023-05-14T03:37:21;8.50;99.90
42201;DHT22;27869;51.442;7.540;2023-05-14T03:39:48;8.50;99.90
42201;DHT22;27869;51.442;7.540;2023-05-14T03:42:15;8.50;99.90
42201;DHT22;27869;51.442;7.540;2023-05-14T03:44:42;8.50;99.90
42201;DHT22;27869;51.442;7.540;2023-05-14T03:47:09;8.50;99.90
42201;DHT22;27869;51.442;7.540;2023-05-14T03:49:36;8.50;99.90
42201;DHT22;27869;51.442;7.540;2023-05-14T03:52:03;8.50;99.90
42201;DHT22;27869;51.442;7.540;2023-05-14T03:54:31;8.50;99.90
42201;DHT22;27869;51.442;7.540;2023-05-14T03:56:58;8.50;99.90
42201;DHT22;27869;51.442;7.540;2023-05-14T03:59:26;8.40;99.90
42201;DHT22;27869;51.442;7.540;2023-05-14T04:01:53;8.40;99.90
42201;DHT22;27869;51.442;7.540;2023-05-14T04:04:22;8.40;99.90
42201;DHT22;27869;51.442;7.540;2023-05-14T04:06:48;8.40;99.90
42201;DHT22;27869;51.442;7.540;2023-05-14T04:09:15;8.40;99.90
42201;DHT22;27869;51.442;7.540;2023-05-14T04:11:44;8.40;99.90
42201;DHT22;27869;51.442;7.540;2023-05-14T04:14:10;8.40;99.90
42201;DHT22;27869;51.442;7.540;2023-05-14T04:16:37;8.40;99.90
42201;DHT22;27869;51.442;7.540;2023-05-14T04:19:04;8.40;99.90
42201;DHT22;27869;51.442;7.540;2023-05-14T04:21:31;8.40;99.90
42201;DHT22;27869;51.442;7.540;2023-05-14T04:23:58;8.40;99.90
42201;DHT22;27869;51.442;7.540;2023-05-14T04:26:25;8.40;99.90
42201;DHT22;27869;51.442;7.540;2023-05-14T04:28:53;8.40;99.90
42201;DHT22;27869;51.442;7.540;2023-05-14T04:31:20;8.40;99.90
42201;DHT22;27869;51.442;7.540;2023-05-14T04:33:47;8.40;99.90
42201;DHT22;27869;51.442;7.540;2023-05-14T04:36:13;8.50;99.90
42201;DHT22;27869;51.442;7.540;2023-05-14T04:38:40;8.50;99.90
42201;DHT22;27869;51.442;7.540;2023-05-14T04:41:07;8.40;99.90
42201;DHT22;27869;51.442;7.540;2023-05-14T04:43:34;8.40;99.90
42201;DHT22;27869;51.442;7.540;2023-05-14T04:46:02;8.50;99.90
42201;DHT22;27869;51.442;7.540;2023-05-14T04:48:29;8.50;99.90
42201;DHT22;27869;51.442;7.540;2023-05-14T04:50:56;8.50;99.90
42201;DHT22;27869;51.442;7.540;2023-05-14T04:53:23;8.60;99.90
42201;DHT22;27869;51.442;7.540;2023-05-14T04:55:50;8.60;99.90
42201;DHT22;27869;51.442;7.540;2023-05-14T04:58:18;8.60;99.90
42201;DHT22;27869;51.442;7.540;2023-05-14T05:00:45;8.60;99.90
42201;DHT22;27869;51.442;7.540;2023-05-14T05:03:13;8.70;99.90
42201;DHT22;27869;51.442;7.540;2023-05-14T05:05:40;8.70;99.90
42201;DHT22;27869;51.442;7.540;2023-05-14T05:08:07;8.70;99.90
42201;DHT22;27869;51.442;7.540;2023-05-14T05:10:35;8.80;99.90
42201;DHT22;27869;51.442;7.540;2023-05-14T05:13:02;8.80;99.90
42201;DHT22;27869;51.442;7.540;2023-05-14T05:15:29;8.90;99.90
42201;DHT22;27869;51.442;7.540;2023-05-14T05:17:56;9.00;99.90
42201;DHT22;27869;51.442;7.540;2023-05-14T05:20:24;9.00;99.90
42201;DHT22;27869;51.442;7.540;2023-05-14T05:22:52;9.00;99.90
42201;DHT22;27869;51.442;7.540;2023-05-14T05:25:19;9.10;99.90
42201;DHT22;27869;51.442;7.540;2023-05-14T05:27:46;9.20;99.90
42201;DHT22;27869;51.442;7.540;2023-05-14T05:30:13;9.30;99.90
42201;DHT22;27869;51.442;7.540;2023-05-14T05:32:40;9.40;99.90
42201;DHT22;27869;51.442;7.540;2023-05-14T05:35:07;9.50;99.90
42201;DHT22;27869;51.442;7.540;2023-05-14T05:37:36;9.50;99.90
42201;DHT22;27869;51.442;7.540;2023-05-14T05:40:03;9.60;99.90
42201;DHT22;27869;51.442;7.540;2023-05-14T05:42:31;9.70;99.90
42201;DHT22;27869;51.442;7.540;2023-05-14T05:44:58;9.70;99.90
42201;DHT22;27869;51.442;7.540;2023-05-14T05:47:25;9.80;99.90
42201;DHT22;27869;51.442;7.540;2023-05-14T05:49:52;9.90;99.90
42201;DHT22;27869;51.442;7.540;2023-05-14T05:52:19;10.00;99.90
42201;DHT22;27869;51.442;7.540;2023-05-14T05:54:47;10.00;99.90
42201;DHT22;27869;51.442;7.540;2023-05-14T05:57:14;10.00;99.90
42201;DHT22;27869;51.442;7.540;2023-05-14T05:59:41;10.10;99.90
42201;DHT22;27869;51.442;7.540;2023-05-14T06:02:08;10.10;99.90
42201;DHT22;27869;51.442;7.540;2023-05-14T06:04:35;10.10;99.90
42201;DHT22;27869;51.442;7.540;2023-05-14T06:07:01;10.10;99.90
42201;DHT22;27869;51.442;7.540;2023-05-14T06:09:28;10.10;99.90
42201;DHT22;27869;51.442;7.540;2023-05-14T06:11:57;10.10;99.90
42201;DHT22;27869;51.442;7.540;2023-05-14T06:14:23;10.20;99.90
42201;DHT22;27869;51.442;7.540;2023-05-14T06:16:50;10.20;99.90
42201;DHT22;27869;51.442;7.540;2023-05-14T06:19:17;10.20;99.90
42201;DHT22;27869;51.442;7.540;2023-05-14T06:21:44;10.30;99.90
42201;DHT22;27869;51.442;7.540;2023-05-14T06:24:11;10.40;99.90
42201;DHT22;27869;51.442;7.540;2023-05-14T06:26:38;10.50;99.90
42201;DHT22;27869;51.442;7.540;2023-05-14T06:29:06;10.60;99.90
42201;DHT22;27869;51.442;7.540;2023-05-14T06:31:33;10.70;99.90
42201;DHT22;27869;51.442;7.540;2023-05-14T06:34:00;10.80;99.90
42201;DHT22;27869;51.442;7.540;2023-05-14T06:36:27;10.90;99.90
42201;DHT22;27869;51.442;7.540;2023-05-14T06:38:54;11.00;99.90
42201;DHT22;27869;51.442;7.540;2023-05-14T06:41:21;11.20;99.90
42201;DHT22;27869;51.442;7.540;2023-05-14T06:43:48;11.30;99.90
42201;DHT22;27869;51.442;7.540;2023-05-14T06:46:16;11.40;99.90
42201;DHT22;27869;51.442;7.540;2023-05-14T06:48:43;11.50;99.90
42201;DHT22;27869;51.442;7.540;2023-05-14T06:51:10;11.60;99.90
42201;DHT22;27869;51.442;7.540;2023-05-14T06:53:37;11.80;99.90
42201;DHT22;27869;51.442;7.540;2023-05-14T06:56:05;11.90;99.90
42201;DHT22;27869;51.442;7.540;2023-05-14T06:58:32;12.00;99.90
42201;DHT22;27869;51.442;7.540;2023-05-14T07:00:59;12.10;99.90
42201;DHT22;27869;51.442;7.540;2023-05-14T07:03:27;12.30;99.90
42201;DHT22;27869;51.442;7.540;2023-05-14T07:05:54;12.40;99.90
42201;DHT22;27869;51.442;7.540;2023-05-14T07:08:21;12.50;99.90
42201;DHT22;27869;51.442;7.540;2023-05-14T07:10:48;12.60;99.90
42201;DHT22;27869;51.442;7.540;2023-05-14T07:13:15;12.80;99.90
42201;DHT22;27869;51.442;7.540;2023-05-14T07:15:42;12.90;99.90
42201;DHT22;27869;51.442;7.540;2023-05-14T07:18:09;13.00;99.90
42201;DHT22;27869;51.442;7.540;2023-05-14T07:20:37;13.20;99.90
42201;DHT22;27869;51.442;7.540;2023-05-14T07:23:04;13.30;99.90
42201;DHT22;27869;51.442;7.540;2023-05-14T07:25:31;13.50;99.90
42201;DHT22;27869;51.442;7.540;2023-05-14T07:27:58;13.60;99.90
42201;DHT22;27869;51.442;7.540;2023-05-14T07:30:25;13.70;99.90
42201;DHT22;27869;51.442;7.540;2023-05-14T07:32:52;13.90;99.90
42201;DHT22;27869;51.442;7.540;2023-05-14T07:35:19;14.10;99.90
42201;DHT22;27869;51.442;7.540;2023-05-14T07:37:47;14.20;99.90
42201;DHT22;27869;51.442;7.540;2023-05-14T07:40:14;14.30;99.90
42201;DHT22;27869;51.442;7.540;2023-05-14T07:42:41;14.50;99.90
42201;DHT22;27869;51.442;7.540;2023-05-14T07:45:09;14.60;99.90
42201;DHT22;27869;51.442;7.540;2023-05-14T07:47:36;14.80;99.90
42201;DHT22;27869;51.442;7.540;2023-05-14T07:50:03;14.90;99.90
42201;DHT22;27869;51.442;7.540;2023-05-14T07:52:30;15.10;99.90
42201;DHT22;27869;51.442;7.540;2023-05-14T07:54:58;15.30;99.90
42201;DHT22;27869;51.442;7.540;2023-05-14T07:57:26;15.40;99.90
42201;DHT22;27869;51.442;7.540;2023-05-14T07:59:53;15.60;99.90
42201;DHT22;27869;51.442;7.540;2023-05-14T08:02:19;15.70;99.90
42201;DHT22;27869;51.442;7.540;2023-05-14T08:04:46;15.80;99.90
42201;DHT22;27869;51.442;7.540;2023-05-14T08:07:13;16.00;99.90
42201;DHT22;27869;51.442;7.540;2023-05-14T08:09:40;16.10;99.90
42201;DHT22;27869;51.442;7.540;2023-05-14T08:12:09;16.30;99.90
42201;DHT22;27869;51.442;7.540;2023-05-14T08:14:36;16.50;99.90
42201;DHT22;27869;51.442;7.540;2023-05-14T08:17:03;16.60;99.90
42201;DHT22;27869;51.442;7.540;2023-05-14T08:19:30;16.80;99.90
42201;DHT22;27869;51.442;7.540;2023-05-14T08:21:57;16.80;99.90
42201;DHT22;27869;51.442;7.540;2023-05-14T08:24:24;16.90;99.90
42201;DHT22;27869;51.442;7.540;2023-05-14T08:26:51;17.10;99.90
42201;DHT22;27869;51.442;7.540;2023-05-14T08:29:19;17.20;99.90
42201;DHT22;27869;51.442;7.540;2023-05-14T08:31:47;17.30;99.90
42201;DHT22;27869;51.442;7.540;2023-05-14T08:34:14;17.40;99.90
42201;DHT22;27869;51.442;7.540;2023-05-14T08:36:41;17.60;99.90
42201;DHT22;27869;51.442;7.540;2023-05-14T08:39:08;17.60;99.90
42201;DHT22;27869;51.442;7.540;2023-05-14T08:41:35;17.80;99.90
42201;DHT22;27869;51.442;7.540;2023-05-14T08:44:06;17.90;99.90
42201;DHT22;27869;51.442;7.540;2023-05-14T08:46:36;18.00;99.90
42201;DHT22;27869;51.442;7.540;2023-05-14T08:49:23;18.10;99.90
42201;DHT22;27869;51.442;7.540;2023-05-14T08:51:53;18.30;99.90
42201;DHT22;27869;51.442;7.540;2023-05-14T08:54:20;18.40;99.90
42201;DHT22;27869;51.442;7.540;2023-05-14T08:56:50;18.60;99.90
42201;DHT22;27869;51.442;7.540;2023-05-14T08:59:18;18.70;99.90
42201;DHT22;27869;51.442;7.540;2023-05-14T09:04:27;18.70;99.90
42201;DHT22;27869;51.442;7.540;2023-05-14T09:06:54;19.00;99.90
42201;DHT22;27869;51.442;7.540;2023-05-14T09:09:21;19.20;99.90
42201;DHT22;27869;51.442;7.540;2023-05-14T09:11:49;19.30;99.90
42201;DHT22;27869;51.442;7.540;2023-05-14T09:14:16;19.40;99.90
42201;DHT22;27869;51.442;7.540;2023-05-14T09:16:44;19.50;99.90
42201;DHT22;27869;51.442;7.540;2023-05-14T09:19:12;19.60;99.90
42201;DHT22;27869;51.442;7.540;2023-05-14T09:21:41;19.70;99.90
42201;DHT22;27869;51.442;7.540;2023-05-14T09:24:18;19.80;99.90
42201;DHT22;27869;51.442;7.540;2023-05-14T09:26:48;19.80;99.90
42201;DHT22;27869;51.442;7.540;2023-05-14T09:29:15;20.00;99.90
42201;DHT22;27869;51.442;7.540;2023-05-14T09:31:42;20.10;99.90
42201;DHT22;27869;51.442;7.540;2023-05-14T09:34:08;20.10;99.90
42201;DHT22;27869;51.442;7.540;2023-05-14T09:36:35;20.30;99.90
42201;DHT22;27869;51.442;7.540;2023-05-14T09:39:04;20.40;99.90
42201;DHT22;27869;51.442;7.540;2023-05-14T09:41:31;20.50;99.90
42201;DHT22;27869;51.442;7.540;2023-05-14T09:43:58;20.60;99.90
42201;DHT22;27869;51.442;7.540;2023-05-14T09:46:26;20.60;99.90
42201;DHT22;27869;51.442;7.540;2023-05-14T09:48:55;20.70;99.90
42201;DHT22;27869;51.442;7.540;2023-05-14T09:51:23;20.70;99.90
42201;DHT22;27869;51.442;7.540;2023-05-14T09:53:51;20.80;99.90
42201;DHT22;27869;51.442;7.540;2023-05-14T09:56:20;20.90;99.90
42201;DHT22;27869;51.442;7.540;2023-05-14T09:58:47;21.00;99.90
42201;DHT22;27869;51.442;7.540;2023-05-14T10:01:17;21.10;99.90
42201;DHT22;27869;51.442;7.540;2023-05-14T10:03:44;21.10;99.90
42201;DHT22;27869;51.442;7.540;2023-05-14T10:06:12;21.10;99.90
42201;DHT22;27869;51.442;7.540;2023-05-14T10:08:43;21.20;99.90
42201;DHT22;27869;51.442;7.540;2023-05-14T10:11:13;21.20;99.90
42201;DHT22;27869;51.442;7.540;2023-05-14T10:13:47;21.30;99.90
42201;DHT22;27869;51.442;7.540;2023-05-14T10:16:20;21.40;99.90
42201;DHT22;27869;51.442;7.540;2023-05-14T10:18:51;21.50;99.90
42201;DHT22;27869;51.442;7.540;2023-05-14T10:21:22;21.60;99.90
42201;DHT22;27869;51.442;7.540;2023-05-14T10:23:50;21.70;99.90
42201;DHT22;27869;51.442;7.540;2023-05-14T10:26:17;21.90;99.90
42201;DHT22;27869;51.442;7.540;2023-05-14T10:28:47;22.00;99.90
42201;DHT22;27869;51.442;7.540;2023-05-14T10:31:14;22.10;99.90
42201;DHT22;27869;51.442;7.540;2023-05-14T10:33:48;22.20;99.90
42201;DHT22;27869;51.442;7.540;2023-05-14T10:36:16;22.30;99.90
42201;DHT22;27869;51.442;7.540;2023-05-14T10:38:43;22.40;99.90
42201;DHT22;27869;51.442;7.540;2023-05-14T10:41:11;22.50;99.90
42201;DHT22;27869;51.442;7.540;2023-05-14T10:43:40;22.50;99.90
42201;DHT22;27869;51.442;7.540;2023-05-14T10:46:10;22.40;99.90
42201;DHT22;27869;51.442;7.540;2023-05-14T10:48:39;22.40;99.90
42201;DHT22;27869;51.442;7.540;2023-05-14T10:51:07;22.40;99.90
42201;DHT22;27869;51.442;7.540;2023-05-14T10:53:36;22.50;99.80
42201;DHT22;27869;51.442;7.540;2023-05-14T10:56:05;22.50;98.60
42201;DHT22;27869;51.442;7.540;2023-05-14T10:58:35;22.60;98.20
42201;DHT22;27869;51.442;7.540;2023-05-14T11:01:02;22.70;99.80
42201;DHT22;27869;51.442;7.540;2023-05-14T11:03:38;22.80;98.30
42201;DHT22;27869;51.442;7.540;2023-05-14T11:06:06;22.80;95.30
42201;DHT22;27869;51.442;7.540;2023-05-14T11:08:34;22.90;98.20
42201;DHT22;27869;51.442;7.540;2023-05-14T11:11:01;22.90;98.80
42201;DHT22;27869;51.442;7.540;2023-05-14T11:13:28;22.90;99.90
42201;DHT22;27869;51.442;7.540;2023-05-14T11:15:55;22.90;99.80
42201;DHT22;27869;51.442;7.540;2023-05-14T11:18:26;22.90;99.90
42201;DHT22;27869;51.442;7.540;2023-05-14T11:20:57;22.90;95.20
42201;DHT22;27869;51.442;7.540;2023-05-14T11:23:24;22.90;97.90
42201;DHT22;27869;51.442;7.540;2023-05-14T11:25:51;23.00;99.70
42201;DHT22;27869;51.442;7.540;2023-05-14T11:28:19;23.10;98.50
42201;DHT22;27869;51.442;7.540;2023-05-14T11:30:47;23.00;97.50
42201;DHT22;27869;51.442;7.540;2023-05-14T11:33:15;22.80;97.80
42201;DHT22;27869;51.442;7.540;2023-05-14T11:35:42;22.70;97.50
42201;DHT22;27869;51.442;7.540;2023-05-14T11:38:14;22.60;98.60
42201;DHT22;27869;51.442;7.540;2023-05-14T11:40:42;22.60;97.60
42201;DHT22;27869;51.442;7.540;2023-05-14T11:43:10;22.60;97.50
42201;DHT22;27869;51.442;7.540;2023-05-14T11:45:37;22.70;98.50
42201;DHT22;27869;51.442;7.540;2023-05-14T11:48:11;22.80;99.00
42201;DHT22;27869;51.442;7.540;2023-05-14T11:50:39;22.80;97.80
42201;DHT22;27869;51.442;7.540;2023-05-14T11:53:06;22.80;99.80
42201;DHT22;27869;51.442;7.540;2023-05-14T11:55:35;22.70;98.50
42201;DHT22;27869;51.442;7.540;2023-05-14T11:58:02;22.70;98.60
42201;DHT22;27869;51.442;7.540;2023-05-14T12:00:28;22.60;98.80
42201;DHT22;27869;51.442;7.540;2023-05-14T12:02:58;22.50;98.70
42201;DHT22;27869;51.442;7.540;2023-05-14T12:05:25;22.40;97.70
42201;DHT22;27869;51.442;7.540;2023-05-14T12:07:52;22.40;97.00
42201;DHT22;27869;51.442;7.540;2023-05-14T12:10:20;22.30;96.90
42201;DHT22;27869;51.442;7.540;2023-05-14T12:12:49;22.30;97.00
42201;DHT22;27869;51.442;7.540;2023-05-14T12:15:16;22.40;97.30
42201;DHT22;27869;51.442;7.540;2023-05-14T12:17:48;22.40;99.90
42201;DHT22;27869;51.442;7.540;2023-05-14T12:20:16;22.40;99.20
42201;DHT22;27869;51.442;7.540;2023-05-14T12:22:43;22.50;99.90
42201;DHT22;27869;51.442;7.540;2023-05-14T12:25:11;22.40;98.70
42201;DHT22;27869;51.442;7.540;2023-05-14T12:27:39;22.40;99.20
42201;DHT22;27869;51.442;7.540;2023-05-14T12:30:08;22.30;98.50
42201;DHT22;27869;51.442;7.540;2023-05-14T12:32:38;22.30;98.90
42201;DHT22;27869;51.442;7.540;2023-05-14T12:35:06;22.20;99.60
42201;DHT22;27869;51.442;7.540;2023-05-14T12:37:33;22.20;98.90
42201;DHT22;27869;51.442;7.540;2023-05-14T12:40:02;22.20;99.30
42201;DHT22;27869;51.442;7.540;2023-05-14T12:42:33;22.20;95.30
42201;DHT22;27869;51.442;7.540;2023-05-14T12:45:00;22.10;95.10
42201;DHT22;27869;51.442;7.540;2023-05-14T12:47:31;22.00;97.30
42201;DHT22;27869;51.442;7.540;2023-05-14T12:49:58;21.90;95.40
42201;DHT22;27869;51.442;7.540;2023-05-14T12:52:25;21.80;96.10
42201;DHT22;27869;51.442;7.540;2023-05-14T12:54:52;21.80;96.90
42201;DHT22;27869;51.442;7.540;2023-05-14T12:57:19;21.80;98.40
42201;DHT22;27869;51.442;7.540;2023-05-14T12:59:46;21.70;99.00
42201;DHT22;27869;51.442;7.540;2023-05-14T13:02:13;21.70;99.00
42201;DHT22;27869;51.442;7.540;2023-05-14T13:04:42;21.60;98.10
42201;DHT22;27869;51.442;7.540;2023-05-14T13:07:09;21.50;97.30
42201;DHT22;27869;51.442;7.540;2023-05-14T13:09:36;21.50;97.00
42201;DHT22;27869;51.442;7.540;2023-05-14T13:12:03;21.50;98.30
42201;DHT22;27869;51.442;7.540;2023-05-14T13:14:30;21.50;97.10
42201;DHT22;27869;51.442;7.540;2023-05-14T13:16:57;21.50;95.90
42201;DHT22;27869;51.442;7.540;2023-05-14T13:19:24;21.50;95.90
42201;DHT22;27869;51.442;7.540;2023-05-14T13:21:52;21.50;96.90
42201;DHT22;27869;51.442;7.540;2023-05-14T13:24:19;21.50;96.10
42201;DHT22;27869;51.442;7.540;2023-05-14T13:26:46;21.50;95.40
42201;DHT22;27869;51.442;7.540;2023-05-14T13:29:13;21.50;94.50
42201;DHT22;27869;51.442;7.540;2023-05-14T13:31:43;21.50;94.80
42201;DHT22;27869;51.442;7.540;2023-05-14T13:34:10;21.50;94.40
42201;DHT22;27869;51.442;7.540;2023-05-14T13:36:37;21.40;93.50
42201;DHT22;27869;51.442;7.540;2023-05-14T13:39:06;21.50;94.60
42201;DHT22;27869;51.442;7.540;2023-05-14T13:41:34;21.50;93.40
42201;DHT22;27869;51.442;7.540;2023-05-14T13:44:02;21.50;93.30
42201;DHT22;27869;51.442;7.540;2023-05-14T13:46:29;21.50;92.10
42201;DHT22;27869;51.442;7.540;2023-05-14T13:48:56;21.40;93.30
42201;DHT22;27869;51.442;7.540;2023-05-14T13:51:23;21.40;93.30
42201;DHT22;27869;51.442;7.540;2023-05-14T13:53:50;21.40;92.90
42201;DHT22;27869;51.442;7.540;2023-05-14T13:56:18;21.30;93.90
42201;DHT22;27869;51.442;7.540;2023-05-14T13:58:45;21.30;92.90
42201;DHT22;27869;51.442;7.540;2023-05-14T14:01:13;21.20;86.30
42201;DHT22;27869;51.442;7.540;2023-05-14T14:03:39;21.20;94.10
42201;DHT22;27869;51.442;7.540;2023-05-14T14:06:06;21.10;93.40
42201;DHT22;27869;51.442;7.540;2023-05-14T14:08:33;21.10;93.60
42201;DHT22;27869;51.442;7.540;2023-05-14T14:11:00;21.10;93.50
42201;DHT22;27869;51.442;7.540;2023-05-14T14:13:28;21.00;94.70
42201;DHT22;27869;51.442;7.540;2023-05-14T14:15:55;21.00;94.30
42201;DHT22;27869;51.442;7.540;2023-05-14T14:18:22;21.00;95.00
42201;DHT22;27869;51.442;7.540;2023-05-14T14:20:49;20.90;94.10
42201;DHT22;27869;51.442;7.540;2023-05-14T14:23:17;20.80;94.40
42201;DHT22;27869;51.442;7.540;2023-05-14T14:25:44;20.80;94.70
42201;DHT22;27869;51.442;7.540;2023-05-14T14:28:11;20.80;94.40
42201;DHT22;27869;51.442;7.540;2023-05-14T14:30:40;20.70;94.10
42201;DHT22;27869;51.442;7.540;2023-05-14T14:33:06;20.80;94.10
42201;DHT22;27869;51.442;7.540;2023-05-14T14:35:33;20.80;95.20
42201;DHT22;27869;51.442;7.540;2023-05-14T14:38:01;20.80;95.20
42201;DHT22;27869;51.442;7.540;2023-05-14T14:40:28;20.80;94.70
42201;DHT22;27869;51.442;7.540;2023-05-14T14:42:55;20.80;94.60
42201;DHT22;27869;51.442;7.540;2023-05-14T14:45:22;20.80;95.90
42201;DHT22;27869;51.442;7.540;2023-05-14T14:47:51;20.80;95.20
42201;DHT22;27869;51.442;7.540;2023-05-14T14:50:18;20.80;94.90
42201;DHT22;27869;51.442;7.540;2023-05-14T14:52:44;20.80;94.40
42201;DHT22;27869;51.442;7.540;2023-05-14T14:55:12;20.80;94.20
42201;DHT22;27869;51.442;7.540;2023-05-14T14:57:39;20.80;94.90
42201;DHT22;27869;51.442;7.540;2023-05-14T15:00:07;20.80;95.10
42201;DHT22;27869;51.442;7.540;2023-05-14T15:02:34;20.70;95.50
42201;DHT22;27869;51.442;7.540;2023-05-14T15:05:05;20.70;95.00
42201;DHT22;27869;51.442;7.540;2023-05-14T15:07:32;20.70;95.10
42201;DHT22;27869;51.442;7.540;2023-05-14T15:09:59;20.70;96.10
42201;DHT22;27869;51.442;7.540;2023-05-14T15:12:25;20.70;95.30
42201;DHT22;27869;51.442;7.540;2023-05-14T15:14:52;20.70;95.50
42201;DHT22;27869;51.442;7.540;2023-05-14T15:17:19;20.80;95.40
42201;DHT22;27869;51.442;7.540;2023-05-14T15:19:46;20.80;95.60
42201;DHT22;27869;51.442;7.540;2023-05-14T15:22:14;20.80;95.00
42201;DHT22;27869;51.442;7.540;2023-05-14T15:24:41;20.80;94.00
42201;DHT22;27869;51.442;7.540;2023-05-14T15:27:08;20.70;94.60
42201;DHT22;27869;51.442;7.540;2023-05-14T15:29:35;20.70;94.80
42201;DHT22;27869;51.442;7.540;2023-05-14T15:32:02;20.70;95.60
42201;DHT22;27869;51.442;7.540;2023-05-14T15:34:29;20.70;95.00
42201;DHT22;27869;51.442;7.540;2023-05-14T15:36:56;20.70;95.50
42201;DHT22;27869;51.442;7.540;2023-05-14T15:39:24;20.70;95.60